sensor_id;sensor_type;location;lat;lon;timestamp;P1;durP1;ratioP1;P2;durP2;ratioP2
59504;SDS011;45321;53.200;5.814;2024-02-21T00:00:19;33.72;;;5.18;;
59504;SDS011;45321;53.200;5.814;2024-02-21T00:02:45;24.58;;;4.03;;
59504;SDS011;45321;53.200;5.814;2024-02-21T00:05:11;23.30;;;4.07;;
59504;SDS011;45321;53.200;5.814;2024-02-21T00:07:37;32.53;;;5.63;;
59504;SDS011;45321;53.200;5.814;2024-02-21T00:10:02;20.33;;;4.13;;
59504;SDS011;45321;53.200;5.814;2024-02-21T00:12:28;24.58;;;3.80;;
59504;SDS011;45321;53.200;5.814;2024-02-21T00:14:54;25.92;;;4.13;;
59504;SDS011;45321;53.200;5.814;2024-02-21T00:17:19;34.33;;;4.82;;
59504;SDS011;45321;53.200;5.814;2024-02-21T00:19:45;24.20;;;5.18;;
59504;SDS011;45321;53.200;5.814;2024-02-21T00:22:11;25.88;;;3.85;;
59504;SDS011;45321;53.200;5.814;2024-02-21T00:24:37;28.77;;;4.85;;
59504;SDS011;45321;53.200;5.814;2024-02-21T00:27:02;30.95;;;5.25;;
59504;SDS011;45321;53.200;5.814;2024-02-21T00:29:28;34.45;;;5.15;;
59504;SDS011;45321;53.200;5.814;2024-02-21T00:31:54;28.67;;;5.18;;
59504;SDS011;45321;53.200;5.814;2024-02-21T00:34:20;23.20;;;4.07;;
59504;SDS011;45321;53.200;5.814;2024-02-21T00:36:45;33.45;;;5.97;;
59504;SDS011;45321;53.200;5.814;2024-02-21T00:39:11;29.02;;;5.15;;
59504;SDS011;45321;53.200;5.814;2024-02-21T00:41:37;24.63;;;4.85;;
59504;SDS011;45321;53.200;5.814;2024-02-21T00:44:02;36.60;;;5.30;;
59504;SDS011;45321;53.200;5.814;2024-02-21T00:46:30;31.15;;;5.72;;
59504;SDS011;45321;53.200;5.814;2024-02-21T00:48:56;28.73;;;4.95;;
59504;SDS011;45321;53.200;5.814;2024-02-21T00:51:22;29.95;;;5.70;;
59504;SDS011;45321;53.200;5.814;2024-02-21T00:53:48;32.10;;;5.88;;
59504;SDS011;45321;53.200;5.814;2024-02-21T00:56:13;31.60;;;5.97;;
59504;SDS011;45321;53.200;5.814;2024-02-21T00:58:39;38.45;;;6.95;;
59504;SDS011;45321;53.200;5.814;2024-02-21T01:01:05;29.50;;;5.82;;
59504;SDS011;45321;53.200;5.814;2024-02-21T01:03:30;29.10;;;6.47;;
59504;SDS011;45321;53.200;5.814;2024-02-21T01:05:56;41.45;;;7.63;;
59504;SDS011;45321;53.200;5.814;2024-02-21T01:08:22;27.10;;;6.03;;
59504;SDS011;45321;53.200;5.814;2024-02-21T01:10:47;33.60;;;6.10;;
59504;SDS011;45321;53.200;5.814;2024-02-21T01:13:13;42.03;;;5.95;;
59504;SDS011;45321;53.200;5.814;2024-02-21T01:15:39;32.03;;;6.68;;
59504;SDS011;45321;53.200;5.814;2024-02-21T01:18:05;26.38;;;6.63;;
59504;SDS011;45321;53.200;5.814;2024-02-21T01:20:31;28.17;;;6.55;;
59504;SDS011;45321;53.200;5.814;2024-02-21T01:22:57;35.22;;;7.43;;
59504;SDS011;45321;53.200;5.814;2024-02-21T01:25:23;26.95;;;6.20;;
59504;SDS011;45321;53.200;5.814;2024-02-21T01:27:48;33.50;;;7.43;;
59504;SDS011;45321;53.200;5.814;2024-02-21T01:30:14;33.00;;;7.47;;
59504;SDS011;45321;53.200;5.814;2024-02-21T01:32:40;27.45;;;6.68;;
59504;SDS011;45321;53.200;5.814;2024-02-21T01:35:06;28.40;;;7.10;;
59504;SDS011;45321;53.200;5.814;2024-02-21T01:37:32;37.70;;;6.90;;
59504;SDS011;45321;53.200;5.814;2024-02-21T01:39:58;32.75;;;7.10;;
59504;SDS011;45321;53.200;5.814;2024-02-21T01:42:24;35.05;;;8.02;;
59504;SDS011;45321;53.200;5.814;2024-02-21T01:44:50;32.10;;;6.78;;
59504;SDS011;45321;53.200;5.814;2024-02-21T01:47:16;42.05;;;8.32;;
59504;SDS011;45321;53.200;5.814;2024-02-21T01:49:42;34.83;;;6.72;;
59504;SDS011;45321;53.200;5.814;2024-02-21T01:52:08;34.72;;;6.93;;
59504;SDS011;45321;53.200;5.814;2024-02-21T01:54:36;32.42;;;8.13;;
59504;SDS011;45321;53.200;5.814;2024-02-21T01:57:02;39.20;;;7.53;;
59504;SDS011;45321;53.200;5.814;2024-02-21T01:59:28;28.98;;;6.13;;
59504;SDS011;45321;53.200;5.814;2024-02-21T02:01:54;37.60;;;6.25;;
59504;SDS011;45321;53.200;5.814;2024-02-21T02:04:22;34.35;;;6.68;;
59504;SDS011;45321;53.200;5.814;2024-02-21T02:06:50;30.63;;;5.85;;
59504;SDS011;45321;53.200;5.814;2024-02-21T02:09:18;31.67;;;6.00;;
59504;SDS011;45321;53.200;5.814;2024-02-21T02:11:43;34.65;;;6.28;;
59504;SDS011;45321;53.200;5.814;2024-02-21T02:14:09;38.83;;;6.53;;
59504;SDS011;45321;53.200;5.814;2024-02-21T02:16:35;31.80;;;5.93;;
59504;SDS011;45321;53.200;5.814;2024-02-21T02:19:00;42.90;;;6.43;;
59504;SDS011;45321;53.200;5.814;2024-02-21T02:21:29;36.53;;;6.03;;
59504;SDS011;45321;53.200;5.814;2024-02-21T02:23:59;35.53;;;6.13;;
59504;SDS011;45321;53.200;5.814;2024-02-21T02:26:25;32.78;;;5.50;;
59504;SDS011;45321;53.200;5.814;2024-02-21T02:28:52;32.85;;;5.85;;
59504;SDS011;45321;53.200;5.814;2024-02-21T02:31:18;41.78;;;5.55;;
59504;SDS011;45321;53.200;5.814;2024-02-21T02:33:43;27.33;;;4.82;;
59504;SDS011;45321;53.200;5.814;2024-02-21T02:36:09;36.10;;;5.15;;
59504;SDS011;45321;53.200;5.814;2024-02-21T02:38:35;38.47;;;5.00;;
59504;SDS011;45321;53.200;5.814;2024-02-21T02:41:01;28.63;;;5.55;;
59504;SDS011;45321;53.200;5.814;2024-02-21T02:43:26;33.80;;;5.97;;
59504;SDS011;45321;53.200;5.814;2024-02-21T02:45:52;37.75;;;5.38;;
59504;SDS011;45321;53.200;5.814;2024-02-21T02:48:18;28.52;;;4.80;;
59504;SDS011;45321;53.200;5.814;2024-02-21T02:50:44;39.83;;;5.22;;
59504;SDS011;45321;53.200;5.814;2024-02-21T02:53:11;32.65;;;6.10;;
59504;SDS011;45321;53.200;5.814;2024-02-21T02:55:36;35.00;;;5.95;;
59504;SDS011;45321;53.200;5.814;2024-02-21T02:58:02;43.17;;;6.78;;
59504;SDS011;45321;53.200;5.814;2024-02-21T03:00:28;36.35;;;5.88;;
59504;SDS011;45321;53.200;5.814;2024-02-21T03:02:54;43.70;;;6.65;;
59504;SDS011;45321;53.200;5.814;2024-02-21T03:05:20;46.83;;;7.95;;
59504;SDS011;45321;53.200;5.814;2024-02-21T03:07:46;35.92;;;6.50;;
59504;SDS011;45321;53.200;5.814;2024-02-21T03:10:13;29.00;;;5.80;;
59504;SDS011;45321;53.200;5.814;2024-02-21T03:12:41;36.15;;;6.20;;
59504;SDS011;45321;53.200;5.814;2024-02-21T03:15:07;38.20;;;6.45;;
59504;SDS011;45321;53.200;5.814;2024-02-21T03:17:33;41.00;;;6.05;;
59504;SDS011;45321;53.200;5.814;2024-02-21T03:19:59;35.70;;;6.22;;
59504;SDS011;45321;53.200;5.814;2024-02-21T03:22:26;38.33;;;7.13;;
59504;SDS011;45321;53.200;5.814;2024-02-21T03:24:52;32.10;;;6.15;;
59504;SDS011;45321;53.200;5.814;2024-02-21T03:27:18;36.65;;;6.63;;
59504;SDS011;45321;53.200;5.814;2024-02-21T03:29:43;30.05;;;6.10;;
59504;SDS011;45321;53.200;5.814;2024-02-21T03:32:09;33.72;;;6.20;;
59504;SDS011;45321;53.200;5.814;2024-02-21T03:34:35;37.50;;;6.28;;
59504;SDS011;45321;53.200;5.814;2024-02-21T03:37:01;31.98;;;5.43;;
59504;SDS011;45321;53.200;5.814;2024-02-21T03:39:26;35.80;;;5.93;;
59504;SDS011;45321;53.200;5.814;2024-02-21T03:41:52;39.83;;;6.15;;
59504;SDS011;45321;53.200;5.814;2024-02-21T03:44:18;32.53;;;5.80;;
59504;SDS011;45321;53.200;5.814;2024-02-21T03:46:44;32.83;;;6.30;;
59504;SDS011;45321;53.200;5.814;2024-02-21T03:49:10;32.50;;;5.72;;
59504;SDS011;45321;53.200;5.814;2024-02-21T03:51:36;28.88;;;5.18;;
59504;SDS011;45321;53.200;5.814;2024-02-21T03:54:02;34.17;;;6.35;;
59504;SDS011;45321;53.200;5.814;2024-02-21T03:56:28;35.17;;;5.97;;
59504;SDS011;45321;53.200;5.814;2024-02-21T03:58:53;27.50;;;5.45;;
59504;SDS011;45321;53.200;5.814;2024-02-21T04:01:20;32.85;;;5.38;;
59504;SDS011;45321;53.200;5.814;2024-02-21T04:03:46;40.28;;;7.13;;
59504;SDS011;45321;53.200;5.814;2024-02-21T04:06:11;34.08;;;5.43;;
59504;SDS011;45321;53.200;5.814;2024-02-21T04:08:38;27.13;;;6.13;;
59504;SDS011;45321;53.200;5.814;2024-02-21T04:11:04;31.75;;;5.20;;
59504;SDS011;45321;53.200;5.814;2024-02-21T04:13:30;33.50;;;4.55;;
59504;SDS011;45321;53.200;5.814;2024-02-21T04:15:55;29.77;;;5.22;;
59504;SDS011;45321;53.200;5.814;2024-02-21T04:18:22;34.58;;;5.22;;
59504;SDS011;45321;53.200;5.814;2024-02-21T04:20:47;25.42;;;4.35;;
59504;SDS011;45321;53.200;5.814;2024-02-21T04:23:13;35.30;;;5.80;;
59504;SDS011;45321;53.200;5.814;2024-02-21T04:25:39;30.05;;;5.43;;
59504;SDS011;45321;53.200;5.814;2024-02-21T04:28:05;23.02;;;4.22;;
59504;SDS011;45321;53.200;5.814;2024-02-21T04:30:30;30.40;;;4.72;;
59504;SDS011;45321;53.200;5.814;2024-02-21T04:32:56;35.38;;;5.47;;
59504;SDS011;45321;53.200;5.814;2024-02-21T04:35:22;28.27;;;4.88;;
59504;SDS011;45321;53.200;5.814;2024-02-21T04:37:48;25.95;;;4.53;;
59504;SDS011;45321;53.200;5.814;2024-02-21T04:40:14;32.13;;;5.65;;
59504;SDS011;45321;53.200;5.814;2024-02-21T04:42:41;33.75;;;4.60;;
59504;SDS011;45321;53.200;5.814;2024-02-21T04:45:08;25.55;;;4.93;;
59504;SDS011;45321;53.200;5.814;2024-02-21T04:47:34;29.88;;;5.63;;
59504;SDS011;45321;53.200;5.814;2024-02-21T04:49:59;32.53;;;4.93;;
59504;SDS011;45321;53.200;5.814;2024-02-21T04:52:25;26.23;;;4.72;;
59504;SDS011;45321;53.200;5.814;2024-02-21T04:54:51;33.38;;;6.32;;
59504;SDS011;45321;53.200;5.814;2024-02-21T04:57:17;29.67;;;4.68;;
59504;SDS011;45321;53.200;5.814;2024-02-21T04:59:46;33.55;;;5.78;;
59504;SDS011;45321;53.200;5.814;2024-02-21T05:02:13;26.27;;;4.80;;
59504;SDS011;45321;53.200;5.814;2024-02-21T05:04:39;28.52;;;5.50;;
59504;SDS011;45321;53.200;5.814;2024-02-21T05:07:06;28.35;;;5.43;;
59504;SDS011;45321;53.200;5.814;2024-02-21T05:09:32;32.55;;;6.10;;
59504;SDS011;45321;53.200;5.814;2024-02-21T05:11:58;31.65;;;5.45;;
59504;SDS011;45321;53.200;5.814;2024-02-21T05:14:24;34.40;;;5.65;;
59504;SDS011;45321;53.200;5.814;2024-02-21T05:16:51;34.03;;;5.20;;
59504;SDS011;45321;53.200;5.814;2024-02-21T05:19:18;32.25;;;6.10;;
59504;SDS011;45321;53.200;5.814;2024-02-21T05:21:43;31.00;;;5.72;;
59504;SDS011;45321;53.200;5.814;2024-02-21T05:24:09;32.90;;;5.88;;
59504;SDS011;45321;53.200;5.814;2024-02-21T05:26:35;37.50;;;6.53;;
59504;SDS011;45321;53.200;5.814;2024-02-21T05:29:01;45.28;;;6.55;;
59504;SDS011;45321;53.200;5.814;2024-02-21T05:31:26;38.88;;;6.13;;
59504;SDS011;45321;53.200;5.814;2024-02-21T05:34:28;36.95;;;6.25;;
59504;SDS011;45321;53.200;5.814;2024-02-21T05:36:53;28.98;;;6.32;;
59504;SDS011;45321;53.200;5.814;2024-02-21T05:39:19;37.28;;;6.57;;
59504;SDS011;45321;53.200;5.814;2024-02-21T05:41:48;35.15;;;6.88;;
59504;SDS011;45321;53.200;5.814;2024-02-21T05:44:15;38.10;;;6.38;;
59504;SDS011;45321;53.200;5.814;2024-02-21T05:46:40;34.83;;;6.53;;
59504;SDS011;45321;53.200;5.814;2024-02-21T05:49:06;36.55;;;6.75;;
59504;SDS011;45321;53.200;5.814;2024-02-21T05:51:32;34.83;;;7.40;;
59504;SDS011;45321;53.200;5.814;2024-02-21T05:53:58;31.08;;;7.20;;
59504;SDS011;45321;53.200;5.814;2024-02-21T05:56:24;31.02;;;6.50;;
59504;SDS011;45321;53.200;5.814;2024-02-21T05:58:50;33.20;;;7.53;;
59504;SDS011;45321;53.200;5.814;2024-02-21T06:01:16;28.52;;;6.97;;
59504;SDS011;45321;53.200;5.814;2024-02-21T06:03:42;30.85;;;6.82;;
59504;SDS011;45321;53.200;5.814;2024-02-21T06:06:08;34.80;;;6.70;;
59504;SDS011;45321;53.200;5.814;2024-02-21T06:08:34;33.55;;;7.18;;
59504;SDS011;45321;53.200;5.814;2024-02-21T06:11:00;34.00;;;7.88;;
59504;SDS011;45321;53.200;5.814;2024-02-21T06:13:29;38.35;;;7.07;;
59504;SDS011;45321;53.200;5.814;2024-02-21T06:15:54;37.38;;;6.70;;
59504;SDS011;45321;53.200;5.814;2024-02-21T06:18:20;34.60;;;6.50;;
59504;SDS011;45321;53.200;5.814;2024-02-21T06:20:46;36.38;;;7.15;;
59504;SDS011;45321;53.200;5.814;2024-02-21T06:23:12;31.77;;;6.60;;
59504;SDS011;45321;53.200;5.814;2024-02-21T06:25:40;33.40;;;7.30;;
59504;SDS011;45321;53.200;5.814;2024-02-21T06:28:06;36.75;;;6.55;;
59504;SDS011;45321;53.200;5.814;2024-02-21T06:30:32;38.13;;;6.40;;
59504;SDS011;45321;53.200;5.814;2024-02-21T06:32:57;27.85;;;6.78;;
59504;SDS011;45321;53.200;5.814;2024-02-21T06:35:24;35.83;;;6.97;;
59504;SDS011;45321;53.200;5.814;2024-02-21T06:37:50;32.20;;;6.32;;
59504;SDS011;45321;53.200;5.814;2024-02-21T06:40:25;41.17;;;6.78;;
59504;SDS011;45321;53.200;5.814;2024-02-21T06:42:51;36.35;;;6.90;;
59504;SDS011;45321;53.200;5.814;2024-02-21T06:45:17;38.03;;;6.32;;
59504;SDS011;45321;53.200;5.814;2024-02-21T06:47:43;37.88;;;7.68;;
59504;SDS011;45321;53.200;5.814;2024-02-21T06:50:09;35.30;;;6.97;;
59504;SDS011;45321;53.200;5.814;2024-02-21T06:52:35;35.83;;;7.45;;
59504;SDS011;45321;53.200;5.814;2024-02-21T06:55:01;38.63;;;7.88;;
59504;SDS011;45321;53.200;5.814;2024-02-21T06:57:28;49.78;;;8.50;;
59504;SDS011;45321;53.200;5.814;2024-02-21T06:59:54;39.92;;;7.72;;
59504;SDS011;45321;53.200;5.814;2024-02-21T07:02:20;40.20;;;7.97;;
59504;SDS011;45321;53.200;5.814;2024-02-21T07:04:45;41.47;;;9.02;;
59504;SDS011;45321;53.200;5.814;2024-02-21T07:07:11;40.75;;;8.85;;
59504;SDS011;45321;53.200;5.814;2024-02-21T07:09:37;49.72;;;10.48;;
59504;SDS011;45321;53.200;5.814;2024-02-21T07:12:03;36.50;;;10.98;;
59504;SDS011;45321;53.200;5.814;2024-02-21T07:14:29;52.90;;;12.90;;
59504;SDS011;45321;53.200;5.814;2024-02-21T07:16:57;44.97;;;12.20;;
59504;SDS011;45321;53.200;5.814;2024-02-21T07:19:23;55.33;;;13.38;;
59504;SDS011;45321;53.200;5.814;2024-02-21T07:21:48;58.40;;;14.70;;
59504;SDS011;45321;53.200;5.814;2024-02-21T07:24:14;49.88;;;14.30;;
59504;SDS011;45321;53.200;5.814;2024-02-21T07:26:43;52.95;;;13.98;;
59504;SDS011;45321;53.200;5.814;2024-02-21T07:29:09;56.28;;;14.57;;
59504;SDS011;45321;53.200;5.814;2024-02-21T07:31:41;63.92;;;15.77;;
59504;SDS011;45321;53.200;5.814;2024-02-21T07:34:08;57.83;;;16.27;;
59504;SDS011;45321;53.200;5.814;2024-02-21T07:36:34;53.17;;;16.02;;
59504;SDS011;45321;53.200;5.814;2024-02-21T07:39:00;62.67;;;18.23;;
59504;SDS011;45321;53.200;5.814;2024-02-21T07:41:26;57.20;;;19.40;;
59504;SDS011;45321;53.200;5.814;2024-02-21T07:43:53;60.00;;;19.35;;
59504;SDS011;45321;53.200;5.814;2024-02-21T07:46:19;67.38;;;18.05;;
59504;SDS011;45321;53.200;5.814;2024-02-21T07:48:45;58.00;;;17.20;;
59504;SDS011;45321;53.200;5.814;2024-02-21T07:51:12;67.95;;;18.55;;
59504;SDS011;45321;53.200;5.814;2024-02-21T07:53:40;66.97;;;19.38;;
59504;SDS011;45321;53.200;5.814;2024-02-21T07:56:13;69.45;;;19.35;;
59504;SDS011;45321;53.200;5.814;2024-02-21T07:58:39;58.72;;;20.42;;
59504;SDS011;45321;53.200;5.814;2024-02-21T08:01:08;51.88;;;20.23;;
59504;SDS011;45321;53.200;5.814;2024-02-21T08:03:34;52.97;;;19.33;;
59504;SDS011;45321;53.200;5.814;2024-02-21T08:06:00;55.60;;;19.83;;
59504;SDS011;45321;53.200;5.814;2024-02-21T08:08:26;58.47;;;19.95;;
59504;SDS011;45321;53.200;5.814;2024-02-21T08:10:52;50.70;;;18.65;;
59504;SDS011;45321;53.200;5.814;2024-02-21T08:13:18;49.58;;;16.65;;
59504;SDS011;45321;53.200;5.814;2024-02-21T08:15:43;50.80;;;14.73;;
59504;SDS011;45321;53.200;5.814;2024-02-21T08:18:09;44.92;;;14.25;;
59504;SDS011;45321;53.200;5.814;2024-02-21T08:20:35;41.75;;;13.70;;
59504;SDS011;45321;53.200;5.814;2024-02-21T08:23:01;46.45;;;13.70;;
59504;SDS011;45321;53.200;5.814;2024-02-21T08:25:27;43.10;;;13.82;;
59504;SDS011;45321;53.200;5.814;2024-02-21T08:27:57;36.45;;;11.80;;
59504;SDS011;45321;53.200;5.814;2024-02-21T08:30:24;41.63;;;12.20;;
59504;SDS011;45321;53.200;5.814;2024-02-21T08:32:50;28.15;;;10.88;;
59504;SDS011;45321;53.200;5.814;2024-02-21T08:35:15;33.60;;;10.93;;
59504;SDS011;45321;53.200;5.814;2024-02-21T08:37:43;29.63;;;9.02;;
59504;SDS011;45321;53.200;5.814;2024-02-21T08:40:10;27.35;;;9.35;;
59504;SDS011;45321;53.200;5.814;2024-02-21T08:42:36;25.98;;;8.40;;
59504;SDS011;45321;53.200;5.814;2024-02-21T08:45:04;26.73;;;7.90;;
59504;SDS011;45321;53.200;5.814;2024-02-21T08:47:30;31.40;;;8.52;;
59504;SDS011;45321;53.200;5.814;2024-02-21T08:49:55;35.63;;;7.93;;
59504;SDS011;45321;53.200;5.814;2024-02-21T08:52:21;27.20;;;9.38;;
59504;SDS011;45321;53.200;5.814;2024-02-21T08:54:47;25.83;;;9.90;;
59504;SDS011;45321;53.200;5.814;2024-02-21T08:57:13;29.48;;;11.35;;
59504;SDS011;45321;53.200;5.814;2024-02-21T08:59:39;32.30;;;14.13;;
59504;SDS011;45321;53.200;5.814;2024-02-21T09:02:05;38.45;;;13.98;;
59504;SDS011;45321;53.200;5.814;2024-02-21T09:04:32;31.23;;;16.55;;
59504;SDS011;45321;53.200;5.814;2024-02-21T09:06:58;32.17;;;16.80;;
59504;SDS011;45321;53.200;5.814;2024-02-21T09:09:24;36.70;;;17.65;;
59504;SDS011;45321;53.200;5.814;2024-02-21T09:11:50;32.53;;;17.85;;
59504;SDS011;45321;53.200;5.814;2024-02-21T09:14:16;39.65;;;18.23;;
59504;SDS011;45321;53.200;5.814;2024-02-21T09:16:42;29.88;;;18.73;;
59504;SDS011;45321;53.200;5.814;2024-02-21T09:19:09;32.53;;;19.10;;
59504;SDS011;45321;53.200;5.814;2024-02-21T09:21:36;30.75;;;19.35;;
59504;SDS011;45321;53.200;5.814;2024-02-21T09:24:02;34.28;;;19.67;;
59504;SDS011;45321;53.200;5.814;2024-02-21T09:26:29;33.72;;;20.10;;
59504;SDS011;45321;53.200;5.814;2024-02-21T09:28:54;29.88;;;17.85;;
59504;SDS011;45321;53.200;5.814;2024-02-21T09:31:20;30.58;;;19.02;;
59504;SDS011;45321;53.200;5.814;2024-02-21T09:33:46;27.48;;;19.40;;
59504;SDS011;45321;53.200;5.814;2024-02-21T09:36:11;30.25;;;19.25;;
59504;SDS011;45321;53.200;5.814;2024-02-21T09:38:39;27.85;;;20.45;;
59504;SDS011;45321;53.200;5.814;2024-02-21T09:41:11;30.38;;;21.15;;
59504;SDS011;45321;53.200;5.814;2024-02-21T09:43:40;27.17;;;19.10;;
59504;SDS011;45321;53.200;5.814;2024-02-21T09:46:07;30.30;;;20.45;;
59504;SDS011;45321;53.200;5.814;2024-02-21T09:51:24;36.03;;;20.85;;
59504;SDS011;45321;53.200;5.814;2024-02-21T09:53:52;33.53;;;18.83;;
59504;SDS011;45321;53.200;5.814;2024-02-21T09:56:19;32.25;;;20.38;;
59504;SDS011;45321;53.200;5.814;2024-02-21T09:58:44;31.10;;;19.80;;
59504;SDS011;45321;53.200;5.814;2024-02-21T10:01:12;30.15;;;19.95;;
59504;SDS011;45321;53.200;5.814;2024-02-21T10:03:38;27.40;;;18.85;;
59504;SDS011;45321;53.200;5.814;2024-02-21T10:06:03;31.13;;;19.52;;
59504;SDS011;45321;53.200;5.814;2024-02-21T10:08:29;27.20;;;18.60;;
59504;SDS011;45321;53.200;5.814;2024-02-21T10:10:55;30.70;;;19.67;;
59504;SDS011;45321;53.200;5.814;2024-02-21T10:13:25;28.10;;;19.17;;
59504;SDS011;45321;53.200;5.814;2024-02-21T10:16:05;27.52;;;19.05;;
59504;SDS011;45321;53.200;5.814;2024-02-21T10:18:32;28.17;;;18.15;;
59504;SDS011;45321;53.200;5.814;2024-02-21T10:21:02;27.92;;;18.88;;
59504;SDS011;45321;53.200;5.814;2024-02-21T10:26:30;26.85;;;18.52;;
59504;SDS011;45321;53.200;5.814;2024-02-21T10:28:56;27.33;;;18.88;;
59504;SDS011;45321;53.200;5.814;2024-02-21T10:33:55;28.63;;;18.73;;
59504;SDS011;45321;53.200;5.814;2024-02-21T10:36:21;24.17;;;18.17;;
59504;SDS011;45321;53.200;5.814;2024-02-21T10:38:47;35.47;;;20.45;;
59504;SDS011;45321;53.200;5.814;2024-02-21T10:41:15;37.22;;;19.67;;
59504;SDS011;45321;53.200;5.814;2024-02-21T10:43:44;30.85;;;19.13;;
59504;SDS011;45321;53.200;5.814;2024-02-21T10:46:14;27.20;;;19.63;;
59504;SDS011;45321;53.200;5.814;2024-02-21T10:48:45;35.92;;;20.30;;
59504;SDS011;45321;53.200;5.814;2024-02-21T10:56:30;26.95;;;19.08;;
59504;SDS011;45321;53.200;5.814;2024-02-21T10:59:01;32.35;;;20.25;;
59504;SDS011;45321;53.200;5.814;2024-02-21T11:01:28;31.27;;;20.05;;
59504;SDS011;45321;53.200;5.814;2024-02-21T11:03:57;31.90;;;20.73;;
59504;SDS011;45321;53.200;5.814;2024-02-21T11:06:26;30.77;;;20.10;;
59504;SDS011;45321;53.200;5.814;2024-02-21T11:09:03;30.10;;;20.63;;
59504;SDS011;45321;53.200;5.814;2024-02-21T11:11:32;26.60;;;20.42;;
59504;SDS011;45321;53.200;5.814;2024-02-21T11:14:06;26.65;;;19.90;;
59504;SDS011;45321;53.200;5.814;2024-02-21T11:16:37;29.10;;;20.13;;
59504;SDS011;45321;53.200;5.814;2024-02-21T11:19:04;31.38;;;19.50;;
59504;SDS011;45321;53.200;5.814;2024-02-21T11:21:34;26.70;;;20.23;;
59504;SDS011;45321;53.200;5.814;2024-02-21T11:24:06;24.75;;;18.75;;
59504;SDS011;45321;53.200;5.814;2024-02-21T11:26:32;29.98;;;18.92;;
59504;SDS011;45321;53.200;5.814;2024-02-21T11:31:40;24.35;;;18.05;;
59504;SDS011;45321;53.200;5.814;2024-02-21T11:34:10;25.95;;;18.52;;
59504;SDS011;45321;53.200;5.814;2024-02-21T11:36:46;27.67;;;19.23;;
59504;SDS011;45321;53.200;5.814;2024-02-21T11:39:17;26.45;;;19.58;;
59504;SDS011;45321;53.200;5.814;2024-02-21T11:41:44;26.60;;;19.17;;
59504;SDS011;45321;53.200;5.814;2024-02-21T11:44:10;25.23;;;19.33;;
59504;SDS011;45321;53.200;5.814;2024-02-21T11:46:36;23.88;;;19.60;;
59504;SDS011;45321;53.200;5.814;2024-02-21T11:49:01;24.83;;;19.73;;
59504;SDS011;45321;53.200;5.814;2024-02-21T11:51:28;25.25;;;19.13;;
59504;SDS011;45321;53.200;5.814;2024-02-21T11:53:54;27.30;;;19.35;;
59504;SDS011;45321;53.200;5.814;2024-02-21T11:56:20;27.92;;;19.67;;
59504;SDS011;45321;53.200;5.814;2024-02-21T11:58:47;22.95;;;17.83;;
59504;SDS011;45321;53.200;5.814;2024-02-21T12:01:14;24.88;;;18.95;;
59504;SDS011;45321;53.200;5.814;2024-02-21T12:03:40;22.92;;;18.52;;
59504;SDS011;45321;53.200;5.814;2024-02-21T12:06:14;24.27;;;18.73;;
59504;SDS011;45321;53.200;5.814;2024-02-21T12:08:44;25.45;;;19.15;;
59504;SDS011;45321;53.200;5.814;2024-02-21T12:11:20;23.75;;;18.30;;
59504;SDS011;45321;53.200;5.814;2024-02-21T12:13:47;24.50;;;17.45;;
59504;SDS011;45321;53.200;5.814;2024-02-21T12:16:34;26.17;;;17.77;;
59504;SDS011;45321;53.200;5.814;2024-02-21T12:19:03;23.02;;;17.05;;
59504;SDS011;45321;53.200;5.814;2024-02-21T12:21:29;23.58;;;17.27;;
59504;SDS011;45321;53.200;5.814;2024-02-21T12:23:58;25.98;;;17.38;;
59504;SDS011;45321;53.200;5.814;2024-02-21T12:26:24;22.75;;;17.08;;
59504;SDS011;45321;53.200;5.814;2024-02-21T12:28:51;23.95;;;17.60;;
59504;SDS011;45321;53.200;5.814;2024-02-21T12:31:18;23.13;;;16.80;;
59504;SDS011;45321;53.200;5.814;2024-02-21T12:33:44;21.88;;;15.48;;
59504;SDS011;45321;53.200;5.814;2024-02-21T12:36:09;21.45;;;15.32;;
59504;SDS011;45321;53.200;5.814;2024-02-21T12:38:36;19.20;;;12.63;;
59504;SDS011;45321;53.200;5.814;2024-02-21T12:41:02;17.33;;;13.82;;
59504;SDS011;45321;53.200;5.814;2024-02-21T12:43:28;20.10;;;13.52;;
59504;SDS011;45321;53.200;5.814;2024-02-21T12:45:54;18.38;;;13.35;;
59504;SDS011;45321;53.200;5.814;2024-02-21T12:48:19;17.52;;;11.60;;
59504;SDS011;45321;53.200;5.814;2024-02-21T12:50:48;12.85;;;10.70;;
59504;SDS011;45321;53.200;5.814;2024-02-21T12:53:16;14.50;;;10.43;;
59504;SDS011;45321;53.200;5.814;2024-02-21T12:55:44;17.63;;;10.55;;
59504;SDS011;45321;53.200;5.814;2024-02-21T12:58:12;14.32;;;9.98;;
59504;SDS011;45321;53.200;5.814;2024-02-21T13:00:39;13.07;;;8.75;;
59504;SDS011;45321;53.200;5.814;2024-02-21T13:03:04;15.77;;;10.27;;
59504;SDS011;45321;53.200;5.814;2024-02-21T13:05:30;12.35;;;9.43;;
59504;SDS011;45321;53.200;5.814;2024-02-21T13:07:57;16.80;;;11.88;;
59504;SDS011;45321;53.200;5.814;2024-02-21T13:10:24;18.40;;;12.82;;
59504;SDS011;45321;53.200;5.814;2024-02-21T13:12:50;14.55;;;10.65;;
59504;SDS011;45321;53.200;5.814;2024-02-21T13:15:16;15.18;;;11.02;;
59504;SDS011;45321;53.200;5.814;2024-02-21T13:17:46;12.48;;;9.05;;
59504;SDS011;45321;53.200;5.814;2024-02-21T13:20:12;12.98;;;9.45;;
59504;SDS011;45321;53.200;5.814;2024-02-21T13:22:38;12.40;;;8.75;;
59504;SDS011;45321;53.200;5.814;2024-02-21T13:25:05;12.32;;;9.40;;
59504;SDS011;45321;53.200;5.814;2024-02-21T13:27:33;12.52;;;8.40;;
59504;SDS011;45321;53.200;5.814;2024-02-21T13:29:58;12.20;;;8.63;;
59504;SDS011;45321;53.200;5.814;2024-02-21T13:32:26;15.45;;;8.60;;
59504;SDS011;45321;53.200;5.814;2024-02-21T13:34:52;15.85;;;8.05;;
59504;SDS011;45321;53.200;5.814;2024-02-21T13:37:18;14.18;;;8.20;;
59504;SDS011;45321;53.200;5.814;2024-02-21T13:39:43;11.70;;;8.68;;
59504;SDS011;45321;53.200;5.814;2024-02-21T13:42:09;10.40;;;7.78;;
59504;SDS011;45321;53.200;5.814;2024-02-21T13:44:38;11.23;;;7.72;;
59504;SDS011;45321;53.200;5.814;2024-02-21T13:47:03;11.60;;;7.97;;
59504;SDS011;45321;53.200;5.814;2024-02-21T13:49:30;13.00;;;7.57;;
59504;SDS011;45321;53.200;5.814;2024-02-21T13:51:56;9.25;;;7.00;;
59504;SDS011;45321;53.200;5.814;2024-02-21T13:54:21;14.90;;;8.05;;
59504;SDS011;45321;53.200;5.814;2024-02-21T13:56:47;10.32;;;7.53;;
59504;SDS011;45321;53.200;5.814;2024-02-21T13:59:13;12.27;;;8.05;;
59504;SDS011;45321;53.200;5.814;2024-02-21T14:01:39;12.23;;;8.65;;
59504;SDS011;45321;53.200;5.814;2024-02-21T14:04:04;10.23;;;7.28;;
59504;SDS011;45321;53.200;5.814;2024-02-21T14:06:30;9.50;;;7.50;;
59504;SDS011;45321;53.200;5.814;2024-02-21T14:08:56;11.98;;;7.47;;
59504;SDS011;45321;53.200;5.814;2024-02-21T14:11:22;12.60;;;8.07;;
59504;SDS011;45321;53.200;5.814;2024-02-21T14:13:48;11.55;;;8.50;;
59504;SDS011;45321;53.200;5.814;2024-02-21T14:16:14;11.50;;;8.20;;
59504;SDS011;45321;53.200;5.814;2024-02-21T14:18:42;11.50;;;8.50;;
59504;SDS011;45321;53.200;5.814;2024-02-21T14:21:08;11.10;;;8.50;;
59504;SDS011;45321;53.200;5.814;2024-02-21T14:23:38;10.20;;;8.80;;
59504;SDS011;45321;53.200;5.814;2024-02-21T14:26:04;10.90;;;8.30;;
59504;SDS011;45321;53.200;5.814;2024-02-21T14:28:31;11.27;;;8.27;;
59504;SDS011;45321;53.200;5.814;2024-02-21T14:30:59;9.90;;;8.25;;
59504;SDS011;45321;53.200;5.814;2024-02-21T14:33:28;12.38;;;9.68;;
59504;SDS011;45321;53.200;5.814;2024-02-21T14:35:55;11.82;;;9.35;;
59504;SDS011;45321;53.200;5.814;2024-02-21T14:38:21;11.35;;;8.73;;
59504;SDS011;45321;53.200;5.814;2024-02-21T14:40:47;12.88;;;8.85;;
59504;SDS011;45321;53.200;5.814;2024-02-21T14:43:13;13.68;;;9.05;;